Fruitport, Michigan
Current Conditions -  °F | °C
As of 6:55 AM on Wednesday 28 Jan 2015 (Local Time) from KMKG Reporting Station
Clear Clear  
Wind Chill: 12°   Ceiling: Unl
Heat Index: 12°   Visibility: 9mi
Dew Point:   Wind: 3mph
Humidity: 80%   Direction: 100°E
Pressure: 30.3"   Gusts: NA
Location:  43.13°N, 86.15°W
Report Text: KMKG 281155Z 10003KT 9SM CLR M11/M14 A3030 RMK AO2 SLP271 4/001 T11111139 11094 21117 50005
Loading
Personal Weather Stations






























Interactive Weather Map New forecast layout! Learn more

10-Day Weather Forecast

Advertisements
Track Severe Weather on mobile